Time;durP1;ratioP1;P1;durP2;ratioP2;P2;SDS_P1;SDS_P2;PMS_P1;PMS_P2;Temp;Humidity;BMP_temperature;BMP_pressure;BME280_temperature;BME280_humidity;BME280_pressure;Samples;Min_cycle;Max_cycle;Signal;HPM_P1;HPM_P2
2022/10/17 00:00:13;;;;;;;9.30;9.00;;;14.90;99.90;;;;;;5123353;28;20278;-84
2022/10/17 00:02:42;;;;;;;9.30;9.00;;;14.90;99.90;;;;;;5122353;28;20250;-84
2022/10/17 00:05:11;;;;;;;9.30;9.00;;;14.90;99.90;;;;;;5121365;28;20236;-84
2022/10/17 00:07:41;;;;;;;9.40;9.10;;;14.80;99.90;;;;;;5121692;28;20217;-82
2022/10/17 00:10:12;;;;;;;9.35;9.05;;;14.80;99.90;;;;;;5122065;28;20755;-82
2022/10/17 00:12:42;;;;;;;9.10;8.80;;;14.80;99.90;;;;;;5121665;28;20237;-82
2022/10/17 00:15:15;;;;;;;9.38;9.07;;;14.80;99.90;;;;;;5121812;28;20239;-83
2022/10/17 00:17:43;;;;;;;9.27;8.98;;;14.80;99.90;;;;;;5121821;28;20237;-82
2022/10/17 00:20:12;;;;;;;9.32;9.02;;;14.80;99.90;;;;;;5121387;28;20237;-83
2022/10/17 00:22:40;;;;;;;9.40;9.10;;;14.70;99.90;;;;;;5120998;28;20233;-81
2022/10/17 00:25:09;;;;;;;9.30;9.00;;;14.70;99.90;;;;;;5120476;28;20284;-82
2022/10/17 00:27:38;;;;;;;9.60;9.30;;;14.60;99.90;;;;;;5119967;28;20233;-82
2022/10/17 00:30:10;;;;;;;9.32;9.02;;;14.60;99.90;;;;;;5102848;28;20231;-81
2022/10/17 00:32:39;;;;;;;9.57;9.27;;;14.50;99.90;;;;;;5100153;28;20227;-82
2022/10/17 00:35:08;;;;;;;9.40;9.10;;;14.50;99.90;;;;;;5099883;28;20229;-83
2022/10/17 00:37:36;;;;;;;9.77;9.47;;;14.40;99.90;;;;;;5099421;28;20293;-82
2022/10/17 00:40:06;;;;;;;9.60;9.30;;;14.40;99.90;;;;;;5100466;28;20230;-82
2022/10/17 00:42:34;;;;;;;9.60;9.30;;;14.40;99.90;;;;;;5100375;28;20332;-82
2022/10/17 00:45:23;;;;;;;9.68;9.38;;;14.40;99.90;;;;;;5099805;28;20328;-83
2022/10/17 00:48:00;;;;;;;9.40;9.10;;;14.40;99.90;;;;;;5099007;28;20217;-83
2022/10/17 00:50:29;;;;;;;9.37;9.07;;;14.40;99.90;;;;;;5100384;28;20288;-83
2022/10/17 00:53:01;;;;;;;9.35;9.05;;;14.40;99.90;;;;;;5100676;28;20261;-83
2022/10/17 00:55:35;;;;;;;9.40;9.10;;;14.40;99.90;;;;;;5099802;28;20319;-83
2022/10/17 00:58:06;;;;;;;9.30;9.00;;;14.40;99.90;;;;;;5100735;28;20286;-83
2022/10/17 01:00:35;;;;;;;9.40;9.10;;;14.40;99.90;;;;;;5100439;28;20264;-82
2022/10/17 01:03:06;;;;;;;9.40;9.10;;;14.30;99.90;;;;;;5100796;28;20279;-82
2022/10/17 01:05:34;;;;;;;9.20;8.90;;;14.30;99.90;;;;;;5100542;28;20251;-82
2022/10/17 01:08:04;;;;;;;9.20;8.90;;;14.30;99.90;;;;;;5101006;28;20210;-83
2022/10/17 01:10:42;;;;;;;9.10;8.80;;;14.30;99.90;;;;;;5100952;28;20229;-82
2022/10/17 01:13:20;;;;;;;9.50;9.20;;;14.20;99.90;;;;;;5099737;28;20244;-83
2022/10/17 01:16:00;;;;;;;9.50;9.20;;;14.20;99.90;;;;;;5099346;28;20248;-82
2022/10/17 01:18:54;;;;;;;9.83;9.53;;;14.20;99.90;;;;;;5099765;28;20226;-83
2022/10/17 01:21:35;;;;;;;9.50;9.20;;;14.10;99.90;;;;;;5100018;28;20416;-83
2022/10/17 01:24:56;;;;;;;9.60;9.30;;;14.10;99.90;;;;;;5099441;28;20265;-83
2022/10/17 01:27:44;;;;;;;9.57;9.27;;;14.10;99.90;;;;;;5099420;28;20321;-82
2022/10/17 01:30:52;;;;;;;9.63;9.33;;;14.10;99.90;;;;;;5100216;28;20214;-83
2022/10/17 01:33:33;;;;;;;9.37;9.07;;;14.00;99.90;;;;;;5113618;28;20237;-83
2022/10/17 01:36:12;;;;;;;9.50;9.20;;;14.00;99.90;;;;;;5117671;28;20249;-82
2022/10/17 01:38:49;;;;;;;9.47;9.17;;;14.00;99.90;;;;;;5118368;27;20237;-83
2022/10/17 01:41:28;;;;;;;9.27;8.97;;;14.00;99.90;;;;;;5106158;28;20208;-83
2022/10/17 01:44:05;;;;;;;9.30;9.00;;;13.90;99.90;;;;;;5104142;28;20294;-82
2022/10/17 01:46:39;;;;;;;9.40;9.10;;;13.90;99.90;;;;;;5104052;28;20237;-83
2022/10/17 01:49:14;;;;;;;9.60;9.30;;;13.90;99.90;;;;;;5102380;28;20295;-83
2022/10/17 01:51:46;;;;;;;9.70;9.40;;;13.90;99.90;;;;;;5101681;28;20233;-82
2022/10/17 01:54:22;;;;;;;9.60;9.30;;;13.90;99.90;;;;;;5101058;28;20296;-83
2022/10/17 01:56:54;;;;;;;9.50;9.20;;;13.80;99.90;;;;;;5100587;28;20219;-83
2022/10/17 01:59:30;;;;;;;9.60;9.30;;;13.80;99.90;;;;;;5110238;28;20280;-82
2022/10/17 02:02:02;;;;;;;9.57;9.27;;;13.80;99.90;;;;;;5108456;28;20261;-82
2022/10/17 02:04:30;;;;;;;9.20;8.90;;;13.80;99.90;;;;;;5105365;28;20366;-83
2022/10/17 02:06:58;;;;;;;9.40;9.10;;;13.80;99.90;;;;;;5104044;28;20233;-82
2022/10/17 02:09:30;;;;;;;9.53;9.23;;;13.80;99.90;;;;;;5102316;28;20232;-83
2022/10/17 02:12:25;;;;;;;9.53;9.23;;;13.80;99.90;;;;;;5103532;28;20216;-83
2022/10/17 02:15:12;;;;;;;9.23;8.93;;;13.70;99.90;;;;;;5104102;28;20245;-83
2022/10/17 02:17:51;;;;;;;9.20;8.90;;;13.70;99.90;;;;;;5103804;28;20297;-84
2022/10/17 02:20:29;;;;;;;9.10;8.80;;;13.70;99.90;;;;;;5103675;28;20233;-82
2022/10/17 02:23:05;;;;;;;9.20;8.90;;;13.70;99.90;;;;;;5101841;28;20239;-83
2022/10/17 02:25:46;;;;;;;9.30;9.00;;;13.70;99.90;;;;;;5102990;28;20724;-82
2022/10/17 02:28:23;;;;;;;9.30;9.00;;;13.60;99.90;;;;;;5103389;28;20241;-82
2022/10/17 02:31:02;;;;;;;9.40;9.10;;;13.60;99.90;;;;;;5103254;28;20237;-82
2022/10/17 02:33:40;;;;;;;9.17;8.87;;;13.60;99.90;;;;;;5103332;28;20265;-82
2022/10/17 02:36:18;;;;;;;9.30;9.00;;;13.60;99.90;;;;;;5103611;28;20304;-82
2022/10/17 02:38:48;;;;;;;9.07;8.77;;;13.50;99.90;;;;;;5104796;28;20693;-82
2022/10/17 02:41:18;;;;;;;9.20;8.90;;;13.40;99.90;;;;;;5117367;28;20233;-82
2022/10/17 02:43:49;;;;;;;9.23;8.93;;;13.40;99.90;;;;;;5117881;28;20244;-83
2022/10/17 02:46:26;;;;;;;9.07;8.77;;;13.30;99.90;;;;;;5118643;28;20292;-83
2022/10/17 02:49:02;;;;;;;8.83;8.53;;;13.30;99.90;;;;;;5119111;28;20233;-82
2022/10/17 02:51:42;;;;;;;8.90;8.60;;;13.20;99.90;;;;;;5119417;28;20268;-82
2022/10/17 02:54:16;;;;;;;8.90;8.60;;;13.20;99.90;;;;;;5117001;28;20977;-82
2022/10/17 02:56:51;;;;;;;8.90;8.60;;;13.20;99.90;;;;;;5116744;28;20240;-82
2022/10/17 02:59:23;;;;;;;9.00;8.70;;;13.20;99.90;;;;;;5116451;28;20297;-82
2022/10/17 03:01:52;;;;;;;9.00;8.70;;;13.20;99.90;;;;;;5114911;28;20252;-82
2022/10/17 03:04:23;;;;;;;9.10;8.80;;;13.20;99.90;;;;;;5114448;28;20233;-83
2022/10/17 03:06:53;;;;;;;9.10;8.80;;;13.20;99.90;;;;;;5110254;28;20221;-82
2022/10/17 03:09:25;;;;;;;9.10;8.80;;;13.20;99.90;;;;;;5104397;28;20240;-83
2022/10/17 03:11:53;;;;;;;8.87;8.57;;;13.10;99.90;;;;;;5113977;28;20289;-82
2022/10/17 03:14:24;;;;;;;8.97;8.67;;;13.10;99.90;;;;;;5108367;28;20287;-83
2022/10/17 03:16:53;;;;;;;9.00;8.70;;;13.10;99.90;;;;;;5103649;28;20214;-82
2022/10/17 03:19:25;;;;;;;8.80;8.50;;;13.10;99.90;;;;;;5102116;28;20292;-82
2022/10/17 03:21:52;;;;;;;8.90;8.60;;;13.10;99.90;;;;;;5111365;28;20257;-82
2022/10/17 03:24:21;;;;;;;9.00;8.70;;;13.10;99.90;;;;;;5102651;28;20221;-82
2022/10/17 03:26:50;;;;;;;8.90;8.60;;;13.10;99.90;;;;;;5101837;28;20235;-82
2022/10/17 03:29:20;;;;;;;9.00;8.70;;;13.10;99.90;;;;;;5101596;28;20229;-82
2022/10/17 03:31:48;;;;;;;8.80;8.50;;;13.10;99.90;;;;;;5101510;28;20267;-83
2022/10/17 03:34:19;;;;;;;8.50;8.30;;;13.10;99.90;;;;;;5102472;28;20324;-82
2022/10/17 03:36:51;;;;;;;8.90;8.60;;;13.10;99.90;;;;;;5101698;28;20217;-82
2022/10/17 03:39:18;;;;;;;8.80;8.50;;;13.10;99.90;;;;;;5101712;28;20229;-82
2022/10/17 03:41:47;;;;;;;8.80;8.50;;;13.10;99.90;;;;;;5101099;28;20281;-82
2022/10/17 03:44:17;;;;;;;9.03;8.73;;;13.00;99.90;;;;;;5100426;28;20237;-82
2022/10/17 03:46:46;;;;;;;8.60;8.40;;;13.00;99.90;;;;;;5100122;28;20308;-83
2022/10/17 03:49:14;;;;;;;8.80;8.50;;;13.00;99.90;;;;;;5100403;28;20735;-83
2022/10/17 03:51:41;;;;;;;8.50;8.30;;;13.00;99.90;;;;;;5100844;28;20251;-82
2022/10/17 03:54:16;;;;;;;8.43;8.23;;;13.00;99.90;;;;;;5100556;28;20230;-83
2022/10/17 03:56:44;;;;;;;8.77;8.50;;;13.00;99.90;;;;;;5100382;28;20243;-82
2022/10/17 03:59:14;;;;;;;8.80;8.50;;;12.90;99.90;;;;;;5108086;28;20238;-82
2022/10/17 04:01:43;;;;;;;8.90;8.60;;;12.90;99.90;;;;;;5108624;28;20236;-82
2022/10/17 04:04:13;;;;;;;8.77;8.50;;;12.90;99.90;;;;;;5103439;28;20387;-83
2022/10/17 04:06:42;;;;;;;8.67;8.47;;;12.80;99.90;;;;;;5102224;28;20354;-83
2022/10/17 04:09:16;;;;;;;8.50;8.30;;;12.80;99.90;;;;;;5102193;28;20287;-83
2022/10/17 04:11:44;;;;;;;8.70;8.50;;;12.80;99.90;;;;;;5101676;28;20238;-82
2022/10/17 04:14:11;;;;;;;8.90;8.60;;;12.80;99.90;;;;;;5100749;28;20325;-83
2022/10/17 04:16:42;;;;;;;8.87;8.57;;;12.80;99.90;;;;;;5100279;28;20253;-81
2022/10/17 04:19:13;;;;;;;8.87;8.60;;;12.80;99.90;;;;;;5101124;28;20241;-83
2022/10/17 04:21:41;;;;;;;9.10;8.80;;;12.70;99.90;;;;;;5100180;28;20285;-83
2022/10/17 04:24:12;;;;;;;8.53;8.33;;;12.70;99.90;;;;;;5101648;28;20272;-83
2022/10/17 04:26:40;;;;;;;9.00;8.70;;;12.70;99.90;;;;;;5099869;28;20309;-83
2022/10/17 04:29:08;;;;;;;8.70;8.50;;;12.70;99.90;;;;;;5100871;28;20279;-83
2022/10/17 04:31:39;;;;;;;8.60;8.40;;;12.70;99.90;;;;;;5100903;28;20324;-83
2022/10/17 04:34:08;;;;;;;8.67;8.47;;;12.60;99.90;;;;;;5100813;28;20257;-83
2022/10/17 04:36:37;;;;;;;9.00;8.70;;;12.60;99.90;;;;;;5100278;28;20284;-83
2022/10/17 04:39:05;;;;;;;8.90;8.60;;;12.60;99.90;;;;;;5100241;28;20233;-83
2022/10/17 04:41:48;;;;;;;9.00;8.70;;;12.60;99.90;;;;;;5100577;28;20325;-83
2022/10/17 04:44:15;;;;;;;8.90;8.60;;;12.50;99.90;;;;;;5100012;28;20229;-83
2022/10/17 04:46:43;;;;;;;8.10;7.90;;;12.50;99.90;;;;;;5100156;28;20272;-82
2022/10/17 04:49:12;;;;;;;8.60;8.40;;;12.50;99.90;;;;;;5099652;28;20261;-82
2022/10/17 04:51:42;;;;;;;8.60;8.40;;;12.50;99.90;;;;;;5099952;28;20312;-82
2022/10/17 04:54:12;;;;;;;8.07;7.87;;;12.40;99.90;;;;;;5100199;28;20225;-82
2022/10/17 04:56:50;;;;;;;8.03;7.83;;;12.40;99.90;;;;;;5100213;28;20234;-82
2022/10/17 04:59:19;;;;;;;8.53;8.33;;;12.40;99.90;;;;;;5100928;28;20271;-84
2022/10/17 05:01:48;;;;;;;8.40;8.20;;;12.30;99.90;;;;;;5100966;28;20284;-82
2022/10/17 05:04:18;;;;;;;8.50;8.30;;;12.30;99.90;;;;;;5100533;28;20229;-83
2022/10/17 05:06:47;;;;;;;8.57;8.37;;;12.30;99.90;;;;;;5100580;28;20293;-83
2022/10/17 05:09:16;;;;;;;8.60;8.40;;;12.30;99.90;;;;;;5099958;28;20229;-82
2022/10/17 05:11:50;;;;;;;8.60;8.40;;;12.20;99.90;;;;;;5105702;28;20320;-82
2022/10/17 05:14:17;;;;;;;9.13;8.83;;;12.20;99.90;;;;;;5111906;28;20225;-83
2022/10/17 05:16:45;;;;;;;8.80;8.60;;;12.10;99.90;;;;;;5120520;28;20221;-83
2022/10/17 05:19:16;;;;;;;9.00;8.70;;;12.10;99.90;;;;;;5121296;28;20254;-83
2022/10/17 05:21:44;;;;;;;9.43;9.13;;;12.10;99.90;;;;;;5122542;28;20412;-80
2022/10/17 05:24:15;;;;;;;9.50;9.20;;;12.10;99.90;;;;;;5112806;28;20233;-83
2022/10/17 05:26:45;;;;;;;9.30;9.00;;;12.10;99.90;;;;;;5109319;28;20233;-85
2022/10/17 05:29:12;;;;;;;9.40;9.10;;;12.10;99.90;;;;;;5101166;28;20297;-82
2022/10/17 05:31:40;;;;;;;9.10;8.80;;;12.10;99.90;;;;;;5101288;28;20245;-82
2022/10/17 05:34:08;;;;;;;9.47;9.17;;;12.10;99.90;;;;;;5099919;28;20255;-82
2022/10/17 05:36:36;;;;;;;9.10;8.80;;;12.10;99.90;;;;;;5099527;28;20289;-82
2022/10/17 05:39:04;;;;;;;8.90;8.70;;;12.10;99.90;;;;;;5099497;28;20232;-82
2022/10/17 05:41:32;;;;;;;9.10;8.80;;;12.00;99.90;;;;;;5100267;28;20222;-82
2022/10/17 05:44:02;;;;;;;8.33;8.13;;;12.00;99.90;;;;;;5099811;28;20235;-81
2022/10/17 05:46:30;;;;;;;9.00;8.70;;;12.00;99.90;;;;;;5098972;28;20246;-82
2022/10/17 05:48:57;;;;;;;8.57;8.37;;;11.90;99.90;;;;;;5099823;28;20249;-82
2022/10/17 05:51:25;;;;;;;9.03;8.73;;;11.90;99.90;;;;;;5101094;28;20320;-81
2022/10/17 05:53:52;;;;;;;8.60;8.40;;;11.90;99.90;;;;;;5100353;28;20225;-82
2022/10/17 05:56:20;;;;;;;8.73;8.53;;;11.80;99.90;;;;;;5099915;28;20229;-82
2022/10/17 05:58:48;;;;;;;9.30;9.00;;;11.90;99.90;;;;;;5101625;28;20250;-82
2022/10/17 06:01:19;;;;;;;9.07;8.77;;;11.90;99.90;;;;;;5114250;27;20300;-83
2022/10/17 06:03:48;;;;;;;9.30;9.00;;;11.90;99.90;;;;;;5132501;27;20236;-83
2022/10/17 06:06:17;;;;;;;9.20;8.90;;;11.80;99.90;;;;;;5135266;27;20241;-83
2022/10/17 06:08:49;;;;;;;9.03;8.73;;;11.90;99.90;;;;;;5129315;27;20229;-83
2022/10/17 06:11:17;;;;;;;9.37;9.07;;;11.90;99.90;;;;;;5111463;28;20284;-82
2022/10/17 06:13:45;;;;;;;9.30;9.00;;;11.90;99.90;;;;;;5102180;28;20265;-81
2022/10/17 06:16:13;;;;;;;9.40;9.10;;;11.90;99.90;;;;;;5094939;28;20297;-82
2022/10/17 06:18:42;;;;;;;8.70;8.50;;;12.00;99.90;;;;;;5106198;28;20297;-81
2022/10/17 06:21:12;;;;;;;9.03;8.73;;;12.00;99.90;;;;;;5099008;28;20331;-82
2022/10/17 06:23:40;;;;;;;9.03;8.73;;;12.00;99.90;;;;;;5097490;28;20233;-82
2022/10/17 06:26:08;;;;;;;9.10;8.80;;;12.10;99.90;;;;;;5098676;28;20266;-81
2022/10/17 06:28:36;;;;;;;8.67;8.47;;;12.10;99.90;;;;;;5099047;28;20271;-82
2022/10/17 06:31:07;;;;;;;8.73;8.53;;;12.30;99.90;;;;;;5100498;28;20316;-82
2022/10/17 06:33:34;;;;;;;8.53;8.33;;;12.30;99.90;;;;;;5099182;28;20324;-81
2022/10/17 06:36:05;;;;;;;8.70;8.50;;;12.30;99.90;;;;;;5098799;28;20246;-82
2022/10/17 06:38:34;;;;;;;8.40;8.20;;;12.30;99.90;;;;;;5100045;28;20232;-82
2022/10/17 06:41:07;;;;;;;8.10;7.90;;;12.40;99.90;;;;;;5099700;28;20246;-82
2022/10/17 06:43:36;;;;;;;8.57;8.37;;;12.50;99.90;;;;;;5099724;28;20230;-82
2022/10/17 06:46:03;;;;;;;8.70;8.50;;;12.50;99.90;;;;;;5101837;28;20237;-82
2022/10/17 06:48:31;;;;;;;8.50;8.30;;;12.60;99.90;;;;;;5103207;28;20239;-82
2022/10/17 06:51:00;;;;;;;8.80;8.60;;;12.70;99.90;;;;;;5102796;28;20285;-83
2022/10/17 06:53:30;;;;;;;8.40;8.20;;;12.80;99.90;;;;;;5102814;28;20234;-82
2022/10/17 06:56:01;;;;;;;8.97;8.73;;;12.80;99.90;;;;;;5101588;28;20700;-83
2022/10/17 06:58:29;;;;;;;8.50;8.30;;;12.90;99.90;;;;;;5103245;28;20321;-82
2022/10/17 07:01:00;;;;;;;8.70;8.50;;;12.90;99.90;;;;;;5102181;28;20294;-82
2022/10/17 07:03:27;;;;;;;7.30;7.10;;;13.00;99.90;;;;;;5102545;28;20253;-82
2022/10/17 07:05:56;;;;;;;7.30;7.10;;;13.10;99.90;;;;;;5101921;28;20293;-82
2022/10/17 07:08:24;;;;;;;7.17;6.97;;;13.20;99.90;;;;;;5102402;28;20230;-82
2022/10/17 07:10:54;;;;;;;6.87;6.67;;;13.30;99.90;;;;;;5102788;28;20229;-83
2022/10/17 07:13:22;;;;;;;7.07;6.87;;;13.30;99.90;;;;;;5102033;28;20229;-82
2022/10/17 07:15:49;;;;;;;6.87;6.67;;;13.50;99.90;;;;;;5102308;28;20256;-82
2022/10/17 07:18:17;;;;;;;6.80;6.60;;;13.50;99.90;;;;;;5103412;28;20230;-83
2022/10/17 07:20:44;;;;;;;7.20;7.00;;;13.60;99.90;;;;;;5104013;28;20241;-83
2022/10/17 07:23:12;;;;;;;7.30;7.10;;;13.70;99.90;;;;;;5101528;28;20229;-82
2022/10/17 07:25:39;;;;;;;7.00;6.80;;;13.70;99.90;;;;;;5103134;28;20244;-82
2022/10/17 07:28:10;;;;;;;7.40;7.20;;;13.80;99.90;;;;;;5102999;28;20230;-82
2022/10/17 07:30:38;;;;;;;7.53;7.33;;;13.90;99.90;;;;;;5103505;28;20324;-82
2022/10/17 07:33:05;;;;;;;7.80;7.60;;;13.90;99.90;;;;;;5103448;28;20277;-82
2022/10/17 07:35:33;;;;;;;8.33;8.13;;;14.00;99.90;;;;;;5102039;28;20301;-83
2022/10/17 07:38:01;;;;;;;8.50;8.30;;;14.10;99.90;;;;;;5103264;28;20272;-82
2022/10/17 07:40:28;;;;;;;8.40;8.20;;;14.20;99.90;;;;;;5103170;28;20244;-82
2022/10/17 07:42:56;;;;;;;7.90;7.70;;;14.30;99.90;;;;;;5102818;28;20646;-81
2022/10/17 07:45:26;;;;;;;8.07;7.87;;;14.30;99.90;;;;;;5104151;28;20292;-82
2022/10/17 07:47:57;;;;;;;7.70;7.50;;;14.40;99.90;;;;;;5103827;28;20236;-82
2022/10/17 07:50:25;;;;;;;8.10;7.90;;;14.50;99.90;;;;;;5104845;28;20236;-82
2022/10/17 07:52:53;;;;;;;7.90;7.70;;;14.60;99.90;;;;;;5103654;28;20336;-82
2022/10/17 07:55:20;;;;;;;7.53;7.32;;;14.60;99.90;;;;;;5104483;28;20246;-82
2022/10/17 07:57:48;;;;;;;7.70;7.50;;;14.70;99.90;;;;;;5105742;28;20324;-82
2022/10/17 08:00:15;;;;;;;7.60;7.40;;;14.90;99.90;;;;;;5118698;27;20255;-82
2022/10/17 08:02:45;;;;;;;7.80;7.60;;;15.00;99.90;;;;;;5120184;27;20228;-82
2022/10/17 08:05:13;;;;;;;8.30;8.10;;;15.00;99.90;;;;;;5120329;27;20297;-83
2022/10/17 08:07:40;;;;;;;8.25;8.05;;;15.10;99.90;;;;;;5118700;27;20260;-79
2022/10/17 08:10:09;;;;;;;8.30;8.10;;;15.20;99.90;;;;;;5117379;28;20259;-79
2022/10/17 08:12:36;;;;;;;8.20;8.00;;;15.30;99.90;;;;;;5118345;28;20220;-79
2022/10/17 08:15:06;;;;;;;8.15;7.95;;;15.50;99.90;;;;;;5119220;28;20253;-81
2022/10/17 08:17:36;;;;;;;7.82;7.63;;;15.60;99.90;;;;;;5120491;28;20269;-80
2022/10/17 08:20:07;;;;;;;8.10;7.90;;;15.70;99.90;;;;;;5110024;28;20258;-80
2022/10/17 08:22:35;;;;;;;7.88;7.68;;;15.90;99.90;;;;;;5131256;27;20201;-82
2022/10/17 08:25:05;;;;;;;7.70;7.50;;;16.00;99.90;;;;;;5114264;27;20272;-82
2022/10/17 08:27:34;;;;;;;8.10;7.90;;;16.20;99.90;;;;;;5100621;28;20210;-84
2022/10/17 08:30:04;;;;;;;8.13;7.93;;;16.40;99.90;;;;;;5117937;27;20213;-82
2022/10/17 08:32:33;;;;;;;7.78;7.57;;;16.50;99.90;;;;;;5120119;28;20221;-83
2022/10/17 08:35:02;;;;;;;7.80;7.60;;;16.80;99.90;;;;;;5102785;27;20317;-83
2022/10/17 08:37:35;;;;;;;7.80;7.60;;;17.00;99.90;;;;;;5106334;28;20319;-83
2022/10/17 08:40:03;;;;;;;7.30;7.10;;;17.30;99.90;;;;;;5100623;28;20237;-83
2022/10/17 08:43:00;;;;;;;7.30;7.10;;;17.60;99.90;;;;;;5100650;28;20752;-82
2022/10/17 08:45:34;;;;;;;7.75;7.55;;;17.90;99.90;;;;;;5101140;28;20229;-83
2022/10/17 08:48:06;;;;;;;7.70;7.50;;;18.30;99.90;;;;;;5101862;28;20260;-83
2022/10/17 08:50:38;;;;;;;7.82;7.63;;;18.60;99.90;;;;;;5100693;28;20309;-83
2022/10/17 08:53:20;;;;;;;8.10;7.90;;;18.90;99.90;;;;;;5100417;28;20233;-83
2022/10/17 08:55:53;;;;;;;8.10;7.90;;;19.20;99.90;;;;;;5100802;28;20229;-82
2022/10/17 08:58:31;;;;;;;7.75;7.55;;;19.40;99.90;;;;;;5101714;28;20239;-85
2022/10/17 09:01:09;;;;;;;8.05;7.85;;;19.50;99.90;;;;;;5100876;28;20243;-84
2022/10/17 09:03:54;;;;;;;8.10;7.90;;;19.50;99.90;;;;;;5101157;28;20230;-84
2022/10/17 09:06:28;;;;;;;8.07;7.88;;;19.70;99.90;;;;;;5100583;28;20281;-84
2022/10/17 09:09:19;;;;;;;7.95;7.75;;;19.70;99.90;;;;;;5101800;28;20228;-80
2022/10/17 09:11:58;;;;;;;7.90;7.70;;;19.80;99.90;;;;;;5101201;28;20233;-81
2022/10/17 09:14:53;;;;;;;8.40;8.20;;;19.90;99.90;;;;;;5101703;28;20221;-82
2022/10/17 09:17:35;;;;;;;8.80;8.60;;;20.00;99.90;;;;;;5103999;28;20319;-81
2022/10/17 09:20:10;;;;;;;8.65;8.45;;;20.00;99.90;;;;;;5104332;28;20233;-85
2022/10/17 09:22:45;;;;;;;8.40;8.20;;;20.10;99.90;;;;;;5098058;28;20217;-80
2022/10/17 09:25:19;;;;;;;8.65;8.45;;;20.30;99.90;;;;;;5098835;28;20240;-83
2022/10/17 09:27:50;;;;;;;8.52;8.32;;;20.50;99.90;;;;;;5107072;28;20323;-80
2022/10/17 09:30:37;;;;;;;8.50;8.30;;;20.70;99.90;;;;;;5101405;28;20245;-83
2022/10/17 09:33:13;;;;;;;8.80;8.60;;;21.00;99.90;;;;;;5099541;28;20243;-85
2022/10/17 09:35:42;;;;;;;8.70;8.50;;;21.30;99.90;;;;;;5098703;28;20316;-85
2022/10/17 09:38:20;;;;;;;8.70;8.50;;;21.50;99.90;;;;;;5098888;28;20245;-85
2022/10/17 09:40:58;;;;;;;9.07;8.88;;;21.70;99.90;;;;;;5098540;28;20423;-85
2022/10/17 09:43:28;;;;;;;9.15;8.90;;;21.80;99.90;;;;;;5098516;28;20275;-85
2022/10/17 09:46:07;;;;;;;9.00;8.80;;;21.90;99.90;;;;;;5110291;28;20300;-85
2022/10/17 09:48:45;;;;;;;9.05;8.85;;;21.90;99.90;;;;;;5124543;28;20233;-85
2022/10/17 09:51:14;;;;;;;9.07;8.88;;;22.00;99.90;;;;;;5123722;28;20236;-84
2022/10/17 09:53:46;;;;;;;8.80;8.60;;;22.10;99.90;;;;;;5121706;28;20307;-84
2022/10/17 09:56:21;;;;;;;8.70;8.50;;;22.30;99.90;;;;;;5120182;28;20232;-85
2022/10/17 09:58:52;;;;;;;8.88;8.68;;;22.40;99.90;;;;;;5122907;28;20234;-85
2022/10/17 10:01:23;;;;;;;8.77;8.57;;;22.70;99.90;;;;;;5130431;28;20243;-85
2022/10/17 10:04:18;;;;;;;8.93;8.73;;;22.90;99.90;;;;;;5124179;28;20302;-85
2022/10/17 10:07:03;;;;;;;9.00;8.80;;;22.90;99.90;;;;;;5105212;28;20241;-84
2022/10/17 10:09:34;;;;;;;8.77;8.57;;;23.00;99.90;;;;;;5082702;28;20260;-85
2022/10/17 10:12:21;;;;;;;9.02;8.82;;;23.00;99.90;;;;;;5084146;28;20272;-86
2022/10/17 10:14:50;;;;;;;8.68;8.48;;;23.00;99.90;;;;;;5082820;28;20241;-85
2022/10/17 10:17:38;;;;;;;8.88;8.68;;;22.90;99.90;;;;;;5080603;28;20321;-85
2022/10/17 10:20:33;;;;;;;8.98;8.77;;;23.00;99.90;;;;;;5081597;28;20230;-85
2022/10/17 10:23:13;;;;;;;9.27;8.98;;;23.10;99.90;;;;;;5082321;28;20230;-85
2022/10/17 10:25:53;;;;;;;9.00;8.80;;;23.20;99.90;;;;;;5082746;28;20234;-84
2022/10/17 10:28:28;;;;;;;8.95;8.75;;;23.40;99.90;;;;;;5095169;28;20246;-86
2022/10/17 10:30:58;;;;;;;9.38;9.07;;;23.50;99.90;;;;;;5112755;28;20266;-84
2022/10/17 10:33:28;;;;;;;9.38;9.07;;;23.50;99.90;;;;;;5105741;28;20320;-85
2022/10/17 10:36:00;;;;;;;9.10;8.85;;;23.60;99.90;;;;;;5126595;28;20251;-84
2022/10/17 10:38:28;;;;;;;9.50;9.20;;;23.70;99.90;;;;;;5123795;28;20245;-84
2022/10/17 10:41:02;;;;;;;9.45;9.15;;;24.00;99.90;;;;;;5139272;28;20245;-85
2022/10/17 10:43:37;;;;;;;9.50;9.20;;;24.30;99.90;;;;;;5130519;28;20233;-81
2022/10/17 10:46:18;;;;;;;9.65;9.35;;;24.50;99.90;;;;;;5126801;28;20231;-82
2022/10/17 10:48:54;;;;;;;9.65;9.35;;;24.50;99.90;;;;;;5127461;28;20262;-82
2022/10/17 10:51:29;;;;;;;9.45;9.15;;;24.60;99.90;;;;;;5124884;28;20232;-82
2022/10/17 10:54:03;;;;;;;9.30;9.00;;;24.80;99.90;;;;;;5124457;28;20260;-84
2022/10/17 10:56:37;;;;;;;9.23;8.93;;;24.90;99.90;;;;;;5111658;28;20260;-83
2022/10/17 10:59:17;;;;;;;8.90;8.70;;;24.80;99.90;;;;;;5122570;28;20225;-81
2022/10/17 11:01:52;;;;;;;9.30;9.00;;;24.90;99.90;;;;;;5124443;28;20243;-82
2022/10/17 11:04:31;;;;;;;9.70;9.40;;;25.00;99.90;;;;;;5123674;28;20232;-84
2022/10/17 11:07:09;;;;;;;9.15;8.85;;;25.10;99.90;;;;;;5124588;28;20335;-84
2022/10/17 11:09:48;;;;;;;9.60;9.30;;;25.20;99.90;;;;;;5123856;28;20219;-83
2022/10/17 11:12:22;;;;;;;9.68;9.38;;;25.30;99.90;;;;;;5124304;28;20255;-82
2022/10/17 11:14:58;;;;;;;9.80;9.50;;;25.30;99.90;;;;;;5123777;28;20232;-82
2022/10/17 11:17:39;;;;;;;9.63;9.32;;;25.60;99.90;;;;;;5123966;28;20256;-84
2022/10/17 11:20:21;;;;;;;9.70;9.40;;;25.70;99.90;;;;;;5124405;28;20696;-84
2022/10/17 11:22:52;;;;;;;9.90;9.60;;;25.80;99.90;;;;;;5123156;28;20263;-83
2022/10/17 11:25:33;;;;;;;10.00;9.70;;;25.90;99.90;;;;;;5124871;28;20320;-83
2022/10/17 11:28:01;;;;;;;9.80;9.50;;;25.80;99.90;;;;;;5124040;28;20286;-81
2022/10/17 11:30:42;;;;;;;9.73;9.43;;;25.60;99.90;;;;;;5122939;27;20319;-84
2022/10/17 11:33:17;;;;;;;9.75;9.45;;;25.40;99.90;;;;;;5124063;28;20240;-81
2022/10/17 11:35:48;;;;;;;9.55;9.25;;;25.60;99.90;;;;;;5119259;28;20232;-81
2022/10/17 11:38:22;;;;;;;9.82;9.52;;;25.70;99.90;;;;;;5113394;28;20232;-82
2022/10/17 11:40:52;;;;;;;9.70;9.40;;;25.90;99.90;;;;;;5122027;28;20702;-81
2022/10/17 11:43:25;;;;;;;10.10;9.80;;;25.90;99.90;;;;;;5121913;28;20239;-81
2022/10/17 11:46:02;;;;;;;10.38;10.07;;;26.00;99.90;;;;;;5121647;28;20233;-82
2022/10/17 11:48:35;;;;;;;10.40;10.10;;;26.10;99.90;;;;;;5122324;28;20229;-82
2022/10/17 11:51:09;;;;;;;10.32;10.02;;;26.30;99.90;;;;;;5121878;28;20229;-82
2022/10/17 11:53:49;;;;;;;10.30;10.00;;;26.30;99.90;;;;;;5117250;28;20237;-82
2022/10/17 11:56:27;;;;;;;10.40;10.10;;;26.30;99.90;;;;;;5111361;28;20248;-81
2022/10/17 11:59:06;;;;;;;10.40;10.10;;;26.40;99.90;;;;;;5120967;28;20320;-84
2022/10/17 12:01:42;;;;;;;10.18;9.88;;;26.30;99.90;;;;;;5133399;28;20235;-83
2022/10/17 12:04:25;;;;;;;9.88;9.57;;;26.40;99.90;;;;;;5123122;28;20228;-82
2022/10/17 12:07:12;;;;;;;9.40;9.10;;;26.20;99.90;;;;;;5119504;28;20261;-82
2022/10/17 12:09:47;;;;;;;9.60;9.30;;;26.00;99.90;;;;;;5100118;28;20278;-80
2022/10/17 12:12:27;;;;;;;9.50;9.20;;;25.80;99.90;;;;;;5128608;27;20232;-81
2022/10/17 12:14:55;;;;;;;9.60;9.30;;;25.90;99.90;;;;;;5101871;28;20269;-81
2022/10/17 12:17:37;;;;;;;9.75;9.45;;;26.20;99.90;;;;;;5104082;28;20256;-81
2022/10/17 12:20:29;;;;;;;9.93;9.63;;;26.40;99.90;;;;;;5101703;28;20747;-81
2022/10/17 12:23:02;;;;;;;9.77;9.48;;;26.50;99.90;;;;;;5104255;27;20240;-82
2022/10/17 12:25:33;;;;;;;9.90;9.60;;;26.80;99.90;;;;;;5122501;27;20213;-81
2022/10/17 12:28:17;;;;;;;9.82;9.52;;;27.20;99.90;;;;;;5121756;27;20201;-81
2022/10/17 12:30:57;;;;;;;9.80;9.50;;;27.40;99.90;;;;;;5120991;27;20228;-81
2022/10/17 12:33:35;;;;;;;9.70;9.40;;;27.70;99.90;;;;;;5121599;27;20233;-81
2022/10/17 12:36:48;;;;;;;10.30;10.00;;;28.10;99.90;;;;;;5121518;27;20232;-81
2022/10/17 12:39:50;;;;;;;10.13;9.82;;;28.50;99.90;;;;;;5124138;27;20233;-81
2022/10/17 12:42:47;;;;;;;10.00;9.70;;;28.90;99.90;;;;;;5141712;27;20230;-82
2022/10/17 12:45:48;;;;;;;10.10;9.80;;;28.80;99.90;;;;;;5141460;27;20252;-82
2022/10/17 12:49:03;;;;;;;10.10;9.80;;;28.50;99.90;;;;;;5140989;27;20372;-81
2022/10/17 12:52:15;;;;;;;10.20;9.90;;;28.40;99.90;;;;;;5140924;27;20220;-81
2022/10/17 12:54:46;;;;;;;10.40;10.10;;;28.30;99.90;;;;;;5139367;27;20240;-82
2022/10/17 12:57:22;;;;;;;10.23;9.93;;;28.20;99.90;;;;;;5139556;27;20196;-81
2022/10/17 12:59:49;;;;;;;10.25;9.95;;;28.30;99.90;;;;;;5124661;28;20323;-82
2022/10/17 13:02:22;;;;;;;10.30;10.00;;;28.30;99.90;;;;;;5123236;28;20260;-81
2022/10/17 13:05:04;;;;;;;10.35;10.05;;;28.20;99.90;;;;;;5112026;28;20229;-82
2022/10/17 13:07:35;;;;;;;10.23;9.93;;;28.20;99.90;;;;;;5110391;28;20221;-81
2022/10/17 13:10:04;;;;;;;10.23;9.93;;;28.50;99.90;;;;;;5121101;28;20254;-81
2022/10/17 13:12:36;;;;;;;10.77;10.48;;;28.50;99.90;;;;;;5123278;28;20235;-82
2022/10/17 13:15:08;;;;;;;10.50;10.20;;;28.50;99.90;;;;;;5122144;28;20226;-82
2022/10/17 13:17:36;;;;;;;10.38;10.07;;;28.30;99.90;;;;;;5121622;28;20217;-85